createdAt,value
2023-01-12T00:00:22.110Z,65.70
2023-01-12T00:02:48.614Z,65.50
2023-01-12T00:05:15.112Z,65.40
2023-01-12T00:07:41.605Z,65.60
2023-01-12T00:10:08.095Z,65.70
2023-01-12T00:12:34.591Z,65.90
2023-01-12T00:15:01.076Z,65.80
2023-01-12T00:17:27.544Z,65.80
2023-01-12T00:19:54.042Z,66.10
2023-01-12T00:22:20.540Z,66.00
2023-01-12T00:24:47.045Z,66.00
2023-01-12T00:27:13.517Z,66.10
2023-01-12T00:29:39.986Z,66.00
2023-01-12T00:32:06.487Z,66.20
2023-01-12T00:34:32.985Z,66.10
2023-01-12T00:36:59.461Z,66.20
2023-01-12T00:39:25.940Z,66.20
2023-01-12T00:41:52.415Z,66.00
2023-01-12T00:44:18.875Z,66.10
2023-01-12T00:46:45.354Z,66.20
2023-01-12T00:49:11.834Z,66.20
2023-01-12T00:51:38.316Z,66.30
2023-01-12T00:54:04.806Z,66.20
2023-01-12T00:56:31.286Z,66.40
2023-01-12T00:58:57.774Z,66.40
2023-01-12T01:01:24.384Z,66.50
2023-01-12T01:03:50.929Z,66.60
2023-01-12T01:06:17.424Z,67.00
2023-01-12T01:08:43.893Z,66.70
2023-01-12T01:11:10.370Z,66.60
2023-01-12T01:13:36.876Z,66.60
2023-01-12T01:16:03.379Z,67.00
2023-01-12T01:18:39.496Z,67.00
2023-01-12T01:21:05.968Z,66.90
2023-01-12T01:23:32.437Z,66.70
2023-01-12T01:25:58.894Z,66.90
2023-01-12T01:28:25.370Z,66.90
2023-01-12T01:30:51.883Z,66.90
2023-01-12T01:36:13.642Z,67.10
2023-01-12T01:38:40.124Z,67.20
2023-01-12T01:41:06.617Z,67.30
2023-01-12T01:43:33.100Z,67.10
2023-01-12T01:45:59.594Z,67.30
2023-01-12T01:48:27.314Z,67.40
2023-01-12T01:50:53.807Z,67.30
2023-01-12T01:53:20.274Z,67.30
2023-01-12T01:55:46.755Z,67.30
2023-01-12T01:58:13.228Z,67.00
2023-01-12T02:00:39.713Z,67.10
2023-01-12T02:03:09.574Z,67.20
2023-01-12T02:05:36.432Z,67.20
2023-01-12T02:08:02.903Z,67.30
2023-01-12T02:10:29.405Z,67.40
2023-01-12T02:12:55.893Z,67.40
2023-01-12T02:15:22.378Z,67.60
2023-01-12T02:17:48.858Z,67.60
2023-01-12T02:20:15.352Z,67.40
2023-01-12T02:22:41.826Z,67.60
2023-01-12T02:25:08.311Z,67.60
2023-01-12T02:27:34.802Z,67.50
2023-01-12T02:30:01.267Z,67.80
2023-01-12T02:32:27.735Z,67.60
2023-01-12T02:34:57.369Z,67.80
2023-01-12T02:37:23.859Z,67.90
2023-01-12T02:39:51.372Z,68.00
2023-01-12T02:42:17.850Z,68.00
2023-01-12T02:44:44.347Z,68.00
2023-01-12T02:47:10.827Z,68.10
2023-01-12T02:49:37.293Z,68.10
2023-01-12T02:52:03.763Z,68.00
2023-01-12T02:54:30.228Z,68.80
2023-01-12T02:56:56.701Z,67.80
2023-01-12T02:59:23.193Z,68.10
2023-01-12T03:01:49.759Z,68.10
2023-01-12T03:04:16.266Z,68.10
2023-01-12T03:06:42.751Z,68.10
2023-01-12T03:09:09.209Z,67.90
2023-01-12T03:11:35.671Z,68.10
2023-01-12T03:14:02.152Z,67.90
2023-01-12T03:16:28.648Z,67.70
2023-01-12T03:18:55.207Z,67.70
2023-01-12T03:21:21.673Z,67.80
2023-01-12T03:23:57.449Z,68.10
2023-01-12T03:26:23.927Z,68.30
2023-01-12T03:28:50.412Z,68.20
2023-01-12T03:31:16.908Z,68.10
2023-01-12T03:33:43.405Z,68.10
2023-01-12T03:36:09.883Z,68.20
2023-01-12T03:38:36.343Z,68.30
2023-01-12T03:41:02.845Z,68.30
2023-01-12T03:43:39.564Z,68.40
2023-01-12T03:46:06.053Z,68.50
2023-01-12T03:48:33.415Z,68.50
2023-01-12T03:50:59.919Z,68.40
2023-01-12T03:53:26.392Z,68.50
2023-01-12T03:55:52.879Z,68.70
2023-01-12T03:58:19.363Z,68.50
2023-01-12T04:00:45.872Z,68.50
2023-01-12T04:03:12.405Z,68.70
2023-01-12T04:05:38.932Z,68.50
2023-01-12T04:08:09.718Z,68.30
2023-01-12T04:10:36.194Z,68.40
2023-01-12T04:13:02.671Z,68.50
2023-01-12T04:15:29.177Z,68.60
2023-01-12T04:17:55.649Z,68.60
2023-01-12T04:20:22.151Z,68.60
2023-01-12T04:22:48.623Z,68.40
2023-01-12T04:25:15.093Z,68.60
2023-01-12T04:27:41.560Z,68.70
2023-01-12T04:30:08.014Z,68.70
2023-01-12T04:32:34.498Z,68.80
2023-01-12T04:35:00.963Z,68.70
2023-01-12T04:37:27.439Z,68.50
2023-01-12T04:39:53.910Z,69.00
2023-01-12T04:42:20.378Z,68.90
2023-01-12T04:44:46.867Z,68.90
2023-01-12T04:47:13.355Z,68.90
2023-01-12T04:49:39.836Z,68.90
2023-01-12T04:52:06.313Z,68.70
2023-01-12T04:54:32.734Z,68.90
2023-01-12T04:56:59.222Z,68.90
2023-01-12T04:59:25.690Z,68.70
2023-01-12T05:01:52.226Z,68.80
2023-01-12T05:04:18.803Z,69.00
2023-01-12T05:06:45.350Z,69.10
2023-01-12T05:09:11.815Z,69.10
2023-01-12T05:11:38.333Z,69.00
2023-01-12T05:14:04.817Z,69.10
2023-01-12T05:16:31.372Z,69.00
2023-01-12T05:18:57.864Z,68.90
2023-01-12T05:21:24.384Z,68.80
2023-01-12T05:23:50.881Z,69.00
2023-01-12T05:26:17.415Z,69.10
2023-01-12T05:28:43.896Z,68.90
2023-01-12T05:31:10.450Z,69.00
2023-01-12T05:33:36.976Z,69.20
2023-01-12T05:36:03.486Z,69.30
2023-01-12T05:38:29.967Z,69.10
2023-01-12T05:40:56.478Z,69.00
2023-01-12T05:43:22.964Z,68.90
2023-01-12T05:45:49.528Z,69.10
2023-01-12T05:48:16.005Z,69.30
2023-01-12T05:50:42.514Z,69.00
2023-01-12T05:53:08.995Z,68.90
2023-01-12T05:55:35.474Z,69.00
2023-01-12T05:58:01.961Z,68.80
2023-01-12T06:00:28.441Z,68.90
2023-01-12T06:02:54.952Z,68.80
2023-01-12T06:05:21.435Z,69.00
2023-01-12T06:07:47.912Z,68.90
2023-01-12T06:10:14.399Z,69.00
2023-01-12T06:12:45.585Z,68.90
2023-01-12T06:15:12.077Z,68.70
2023-01-12T06:17:38.546Z,68.80
2023-01-12T06:20:05.024Z,68.80
2023-01-12T06:22:31.526Z,69.00
2023-01-12T06:24:58.011Z,68.90
2023-01-12T06:27:24.528Z,69.10
2023-01-12T06:29:51.030Z,69.10
2023-01-12T06:32:17.552Z,69.10
2023-01-12T06:34:44.039Z,69.00
2023-01-12T06:37:10.528Z,69.00
2023-01-12T06:39:37.019Z,69.20
2023-01-12T06:42:03.543Z,69.10
2023-01-12T06:44:30.041Z,69.20
2023-01-12T06:46:56.541Z,68.90
2023-01-12T06:49:27.636Z,69.10
2023-01-12T06:51:54.144Z,69.30
2023-01-12T06:54:21.219Z,69.20
2023-01-12T06:56:47.724Z,69.30
2023-01-12T06:59:14.204Z,69.60
2023-01-12T07:01:40.788Z,69.40
2023-01-12T07:04:07.418Z,69.60
2023-01-12T07:06:33.924Z,69.60
2023-01-12T07:09:00.419Z,69.40
2023-01-12T07:11:26.896Z,69.50
2023-01-12T07:13:53.384Z,69.40
2023-01-12T07:16:19.911Z,69.40
2023-01-12T07:18:46.399Z,69.40
2023-01-12T07:21:12.867Z,69.70
2023-01-12T07:23:39.341Z,69.70
2023-01-12T07:26:05.796Z,69.70
2023-01-12T07:28:32.282Z,69.70
2023-01-12T07:30:58.776Z,69.80
2023-01-12T07:33:25.256Z,69.80
2023-01-12T07:35:51.719Z,69.80
2023-01-12T07:38:18.189Z,70.10
2023-01-12T07:40:44.656Z,70.10
2023-01-12T07:43:11.137Z,70.10
2023-01-12T07:45:37.614Z,70.00
2023-01-12T07:48:04.092Z,70.10
2023-01-12T07:50:30.604Z,70.20
2023-01-12T07:52:57.078Z,70.20
2023-01-12T07:55:23.559Z,70.20
2023-01-12T07:57:50.046Z,70.20
2023-01-12T08:00:16.512Z,70.20
2023-01-12T08:02:42.992Z,70.30
2023-01-12T08:05:09.495Z,70.20
2023-01-12T08:07:35.964Z,70.20
2023-01-12T08:10:02.435Z,70.30
2023-01-12T08:12:28.916Z,70.50
2023-01-12T08:14:55.400Z,70.30
2023-01-12T08:17:21.876Z,70.30
2023-01-12T08:19:48.360Z,70.10
2023-01-12T08:22:14.844Z,70.30
2023-01-12T08:24:41.315Z,70.70
2023-01-12T08:27:07.773Z,70.70
2023-01-12T08:29:34.236Z,70.50
2023-01-12T08:32:01.658Z,70.50
2023-01-12T08:34:30.138Z,70.50
2023-01-12T08:36:56.619Z,70.70
2023-01-12T08:39:23.132Z,70.90
2023-01-12T08:41:49.627Z,70.90
2023-01-12T08:44:16.103Z,70.80
2023-01-12T08:46:42.646Z,70.70
2023-01-12T08:49:09.242Z,71.00
2023-01-12T08:51:35.719Z,71.00
2023-01-12T08:54:02.366Z,71.20
2023-01-12T08:56:28.857Z,71.20
2023-01-12T08:58:55.351Z,71.00
2023-01-12T09:01:21.957Z,71.20
2023-01-12T09:03:48.514Z,71.30
2023-01-12T09:06:15.007Z,71.20
2023-01-12T09:08:41.511Z,70.70
2023-01-12T09:11:07.986Z,70.90
2023-01-12T09:13:34.463Z,71.00
2023-01-12T09:16:11.613Z,70.90
2023-01-12T09:18:39.491Z,71.10
2023-01-12T09:21:06.011Z,71.30
2023-01-12T09:23:32.502Z,71.50
2023-01-12T09:25:59.047Z,71.40
2023-01-12T09:28:25.497Z,71.30
2023-01-12T09:30:52.014Z,71.20
2023-01-12T09:33:18.520Z,71.60
2023-01-12T09:35:45.007Z,71.60
2023-01-12T09:38:11.505Z,71.80
2023-01-12T09:40:37.999Z,71.80
2023-01-12T09:43:04.499Z,71.60
2023-01-12T09:45:31.048Z,71.60
2023-01-12T09:47:57.566Z,71.90
2023-01-12T09:50:24.097Z,72.00
2023-01-12T09:52:50.570Z,71.80
2023-01-12T09:55:17.071Z,72.00
2023-01-12T09:57:43.949Z,72.10
2023-01-12T10:00:10.468Z,72.30
2023-01-12T10:02:37.100Z,72.30
2023-01-12T10:05:03.736Z,72.50
2023-01-12T10:07:30.204Z,72.20
2023-01-12T10:09:56.700Z,72.10
2023-01-12T10:12:23.206Z,72.20
2023-01-12T10:14:51.768Z,72.70
2023-01-12T10:17:18.259Z,72.40
2023-01-12T10:19:47.118Z,72.50
2023-01-12T10:22:14.385Z,72.60
2023-01-12T10:24:40.844Z,73.80
2023-01-12T10:27:07.298Z,73.20
2023-01-12T10:29:33.794Z,72.90
2023-01-12T10:32:00.393Z,72.90
2023-01-12T10:34:26.905Z,72.70
2023-01-12T10:36:55.625Z,72.90
2023-01-12T10:39:22.282Z,72.70
2023-01-12T10:41:48.779Z,72.90
2023-01-12T10:44:15.242Z,73.00
2023-01-12T10:46:41.766Z,73.20
2023-01-12T10:49:08.238Z,73.40
2023-01-12T10:51:34.744Z,73.00
2023-01-12T10:54:01.230Z,72.90
2023-01-12T10:56:27.716Z,73.20
2023-01-12T10:58:54.188Z,73.40
2023-01-12T11:01:20.782Z,73.50
2023-01-12T11:03:47.333Z,73.00
2023-01-12T11:06:13.865Z,73.40
2023-01-12T11:08:40.330Z,73.20
2023-01-12T11:11:06.836Z,73.50
2023-01-12T11:13:33.321Z,73.60
2023-01-12T11:15:59.825Z,73.60
2023-01-12T11:18:26.297Z,73.90
2023-01-12T11:20:52.747Z,73.60
2023-01-12T11:23:19.232Z,73.50
2023-01-12T11:25:45.711Z,73.60
2023-01-12T11:28:12.219Z,73.70
2023-01-12T11:30:38.694Z,73.50
2023-01-12T11:33:05.209Z,73.90
2023-01-12T11:35:31.675Z,74.10
2023-01-12T11:37:58.177Z,74.10
2023-01-12T11:40:24.666Z,74.10
2023-01-12T11:42:51.150Z,73.80
2023-01-12T11:45:17.651Z,73.80
2023-01-12T11:47:44.115Z,73.90
2023-01-12T11:50:10.592Z,73.90
2023-01-12T11:52:37.076Z,73.90
2023-01-12T11:55:03.554Z,74.30
2023-01-12T11:57:30.072Z,74.10
2023-01-12T11:59:56.531Z,74.40
2023-01-12T12:02:27.915Z,74.60
2023-01-12T12:04:54.420Z,74.20
2023-01-12T12:07:20.893Z,74.40
2023-01-12T12:09:47.348Z,74.50
2023-01-12T12:12:13.867Z,74.60
2023-01-12T12:14:40.354Z,74.20
2023-01-12T12:17:06.849Z,74.40
2023-01-12T12:19:33.319Z,74.50
2023-01-12T12:21:59.827Z,74.30
2023-01-12T12:24:26.318Z,74.40
2023-01-12T12:26:52.805Z,74.30
2023-01-12T12:29:19.285Z,74.50
2023-01-12T12:31:45.788Z,74.40
2023-01-12T12:34:12.285Z,74.70
2023-01-12T12:36:38.744Z,74.90
2023-01-12T12:39:05.225Z,74.90
2023-01-12T12:41:31.684Z,74.60
2023-01-12T12:43:58.191Z,74.60
2023-01-12T12:46:24.692Z,74.40
2023-01-12T12:48:51.214Z,74.40
2023-01-12T12:51:17.694Z,74.50
2023-01-12T12:53:44.167Z,74.80
2023-01-12T12:56:10.665Z,74.90
2023-01-12T12:58:37.188Z,74.80
2023-01-12T13:01:03.678Z,74.90
2023-01-12T13:03:30.197Z,74.70
2023-01-12T13:05:56.698Z,74.80
2023-01-12T13:08:23.195Z,74.90
2023-01-12T13:10:49.696Z,74.90
2023-01-12T13:13:16.160Z,74.70
2023-01-12T13:15:42.639Z,74.90
2023-01-12T13:18:09.136Z,75.10
2023-01-12T13:20:35.641Z,74.70
2023-01-12T13:23:02.161Z,74.80
2023-01-12T13:25:28.632Z,74.70
2023-01-12T13:27:55.134Z,74.50
2023-01-12T13:30:21.613Z,74.50
2023-01-12T13:32:48.083Z,74.50
2023-01-12T13:35:14.575Z,74.60
2023-01-12T13:37:41.059Z,74.50
2023-01-12T13:40:07.543Z,74.70
2023-01-12T13:42:34.025Z,75.40
2023-01-12T13:45:00.521Z,74.70
2023-01-12T13:47:27.005Z,74.80
2023-01-12T13:49:53.504Z,74.80
2023-01-12T13:52:19.988Z,74.90
2023-01-12T13:54:46.459Z,74.70
2023-01-12T13:57:12.940Z,74.90
2023-01-12T13:59:39.421Z,75.20
2023-01-12T14:02:05.948Z,75.00
2023-01-12T14:04:32.444Z,75.20
2023-01-12T14:06:58.922Z,75.30
2023-01-12T14:09:25.426Z,75.20
2023-01-12T14:11:51.911Z,75.00
2023-01-12T14:14:18.406Z,75.20
2023-01-12T14:17:05.258Z,74.90
2023-01-12T14:19:31.344Z,75.00
2023-01-12T14:21:58.503Z,75.10
2023-01-12T14:24:25.018Z,75.10
2023-01-12T14:26:51.526Z,74.90
2023-01-12T14:29:17.993Z,75.00
2023-01-12T14:31:44.614Z,74.90
2023-01-12T14:34:11.118Z,75.10
2023-01-12T14:36:37.638Z,75.10
2023-01-12T14:39:04.124Z,75.20
2023-01-12T14:41:30.633Z,75.10
2023-01-12T14:43:57.107Z,75.20
2023-01-12T14:46:23.597Z,75.30
2023-01-12T14:48:50.122Z,75.20
2023-01-12T14:51:16.620Z,75.20
2023-01-12T14:53:43.119Z,75.70
2023-01-12T14:56:09.602Z,75.30
2023-01-12T14:58:36.068Z,75.40
2023-01-12T15:01:04.089Z,75.40
2023-01-12T15:03:42.917Z,75.30
2023-01-12T15:06:10.053Z,75.40
2023-01-12T15:08:36.538Z,75.30
2023-01-12T15:11:03.047Z,75.10
2023-01-12T15:13:29.510Z,75.30
2023-01-12T15:15:56.048Z,75.20
2023-01-12T15:18:22.540Z,75.30
2023-01-12T15:20:49.060Z,75.30
2023-01-12T15:23:15.538Z,75.10
2023-01-12T15:25:42.047Z,75.60
2023-01-12T15:28:08.521Z,75.40
2023-01-12T15:30:35.000Z,75.10
2023-01-12T15:33:01.501Z,75.20
2023-01-12T15:35:28.031Z,75.50
2023-01-12T15:37:54.505Z,75.20
2023-01-12T15:40:20.978Z,75.20
2023-01-12T15:42:47.480Z,75.50
2023-01-12T15:45:13.946Z,75.50
2023-01-12T15:47:40.413Z,75.50
2023-01-12T15:50:06.896Z,75.50
2023-01-12T15:52:33.373Z,75.30
2023-01-12T15:54:59.855Z,75.60
2023-01-12T15:57:26.354Z,75.40
2023-01-12T15:59:52.822Z,75.40
2023-01-12T16:02:19.340Z,75.50
2023-01-12T16:04:45.919Z,75.40
2023-01-12T16:07:12.438Z,75.40
2023-01-12T16:09:38.906Z,75.60
2023-01-12T16:12:05.385Z,75.40
2023-01-12T16:14:31.859Z,75.20
2023-01-12T16:16:58.337Z,75.10
2023-01-12T16:19:24.812Z,75.00
2023-01-12T16:21:51.298Z,75.50
2023-01-12T16:24:17.939Z,75.50
2023-01-12T16:26:45.672Z,75.60
2023-01-12T16:29:12.182Z,75.80
2023-01-12T16:31:39.489Z,75.70
2023-01-12T16:34:06.112Z,75.60
2023-01-12T16:36:32.622Z,75.60
2023-01-12T16:38:59.115Z,76.10
2023-01-12T16:41:25.621Z,75.80
2023-01-12T16:43:52.087Z,75.70
2023-01-12T16:46:18.557Z,75.50
2023-01-12T16:48:45.028Z,75.50
2023-01-12T16:51:11.487Z,75.40
2023-01-12T16:53:37.975Z,75.50
2023-01-12T16:56:04.450Z,75.50
2023-01-12T16:58:30.931Z,75.60
2023-01-12T17:00:57.558Z,75.80
2023-01-12T17:03:24.616Z,75.80
2023-01-12T17:05:51.153Z,75.80
2023-01-12T17:08:17.725Z,75.70
2023-01-12T17:10:44.329Z,75.60
2023-01-12T17:13:10.885Z,75.50
2023-01-12T17:15:37.533Z,75.90
2023-01-12T17:18:04.546Z,75.90
2023-01-12T17:20:31.117Z,76.20
2023-01-12T17:22:58.652Z,76.20
2023-01-12T17:25:26.013Z,76.30
2023-01-12T17:27:52.532Z,75.90
2023-01-12T17:30:19.035Z,76.00
2023-01-12T17:32:45.553Z,76.10
2023-01-12T17:35:12.030Z,76.40
2023-01-12T17:37:38.504Z,76.20
2023-01-12T17:40:05.009Z,76.20
2023-01-12T17:42:31.785Z,76.00
2023-01-12T17:44:58.281Z,75.90
2023-01-12T17:47:24.765Z,76.10
2023-01-12T17:49:51.265Z,75.90
2023-01-12T17:52:17.770Z,75.60
2023-01-12T17:54:44.254Z,75.80
2023-01-12T17:57:10.742Z,76.10
2023-01-12T17:59:37.300Z,76.10
2023-01-12T18:02:03.966Z,76.10
2023-01-12T18:04:30.473Z,76.20
2023-01-12T18:06:56.957Z,75.90
2023-01-12T18:09:23.448Z,75.80
2023-01-12T18:11:49.923Z,75.90
2023-01-12T18:14:16.410Z,75.90
2023-01-12T18:16:42.895Z,76.00
2023-01-12T18:19:09.377Z,76.30
2023-01-12T18:21:35.869Z,75.90
2023-01-12T18:24:02.381Z,76.00
2023-01-12T18:26:28.883Z,76.00
2023-01-12T18:28:55.369Z,76.30
2023-01-12T18:31:21.893Z,76.40
2023-01-12T18:33:48.392Z,76.00
2023-01-12T18:36:14.861Z,76.20
2023-01-12T18:38:41.332Z,76.10
2023-01-12T18:41:07.809Z,76.00
2023-01-12T18:43:34.271Z,75.90
2023-01-12T18:46:00.782Z,76.00
2023-01-12T18:48:27.269Z,76.30
2023-01-12T18:50:53.761Z,76.10
2023-01-12T18:53:20.253Z,75.90
2023-01-12T18:55:46.738Z,76.10
2023-01-12T18:58:13.250Z,76.40
2023-01-12T19:00:39.756Z,76.30
2023-01-12T19:03:06.283Z,76.10
2023-01-12T19:05:32.791Z,75.90
2023-01-12T19:07:59.258Z,76.00
2023-01-12T19:10:25.730Z,76.30
2023-01-12T19:12:52.203Z,76.00
2023-01-12T19:15:18.686Z,75.90
2023-01-12T19:17:45.163Z,76.00
2023-01-12T19:20:11.662Z,76.10
2023-01-12T19:22:38.126Z,76.40
2023-01-12T19:25:04.619Z,76.40
2023-01-12T19:27:31.113Z,76.40
2023-01-12T19:29:57.615Z,76.40
2023-01-12T19:32:24.125Z,76.20
2023-01-12T19:34:54.117Z,76.20
2023-01-12T19:37:22.931Z,76.30
2023-01-12T19:39:52.383Z,76.40
2023-01-12T19:42:25.882Z,76.00
2023-01-12T19:44:52.364Z,76.00
2023-01-12T19:47:18.856Z,76.10
2023-01-12T19:49:45.343Z,76.10
2023-01-12T19:52:11.818Z,76.20
2023-01-12T19:54:38.287Z,76.30
2023-01-12T19:57:04.754Z,76.40
2023-01-12T19:59:31.233Z,76.00
2023-01-12T20:01:57.763Z,76.10
2023-01-12T20:04:24.258Z,76.10
2023-01-12T20:06:50.740Z,76.20
2023-01-12T20:09:17.213Z,76.10
2023-01-12T20:11:43.747Z,76.30
2023-01-12T20:14:10.312Z,76.00
2023-01-12T20:16:36.791Z,76.00
2023-01-12T20:19:03.253Z,75.90
2023-01-12T20:21:29.721Z,76.10
2023-01-12T20:23:56.208Z,76.00
2023-01-12T20:26:22.691Z,76.10
2023-01-12T20:28:49.185Z,76.10
2023-01-12T20:31:16.472Z,76.10
2023-01-12T20:33:42.987Z,76.10
2023-01-12T20:36:09.466Z,76.10
2023-01-12T20:38:35.947Z,76.20
2023-01-12T20:41:02.449Z,76.10
2023-01-12T20:43:28.918Z,76.40
2023-01-12T20:45:55.388Z,76.30
2023-01-12T20:48:21.853Z,76.30
2023-01-12T20:50:48.337Z,75.90
2023-01-12T20:53:14.794Z,76.20
2023-01-12T20:55:41.298Z,76.10
2023-01-12T20:58:08.008Z,76.40
2023-01-12T21:00:34.532Z,76.40
2023-01-12T21:03:01.050Z,76.30
2023-01-12T21:05:27.610Z,76.30
2023-01-12T21:08:00.009Z,76.10
2023-01-12T21:10:29.881Z,76.40
2023-01-12T21:12:56.367Z,76.20
2023-01-12T21:15:22.862Z,76.30
2023-01-12T21:17:49.339Z,76.40
2023-01-12T21:20:15.834Z,76.40
2023-01-12T21:22:45.141Z,76.40
2023-01-12T21:25:11.651Z,76.40
2023-01-12T21:27:38.132Z,76.30
2023-01-12T21:30:04.581Z,76.20
2023-01-12T21:32:31.076Z,76.20
2023-01-12T21:34:57.546Z,76.30
2023-01-12T21:37:24.046Z,76.10
2023-01-12T21:39:50.531Z,76.00
2023-01-12T21:42:17.018Z,76.10
2023-01-12T21:44:43.488Z,76.00
2023-01-12T21:47:09.973Z,76.30
2023-01-12T21:49:36.506Z,76.00
2023-01-12T21:52:02.994Z,76.00
2023-01-12T21:54:29.488Z,76.10
2023-01-12T21:56:55.968Z,76.00
2023-01-12T21:59:22.459Z,76.10
2023-01-12T22:01:48.981Z,75.90
2023-01-12T22:04:15.545Z,76.00
2023-01-12T22:06:42.039Z,76.30
2023-01-12T22:09:08.481Z,76.20
2023-01-12T22:11:34.973Z,76.10
2023-01-12T22:14:01.463Z,76.20
2023-01-12T22:16:27.989Z,76.20
2023-01-12T22:18:54.479Z,76.00
2023-01-12T22:21:21.023Z,75.90
2023-01-12T22:23:47.540Z,76.40
2023-01-12T22:26:14.024Z,76.30
2023-01-12T22:28:40.510Z,76.40
2023-01-12T22:31:07.007Z,76.40
2023-01-12T22:33:33.468Z,76.30
2023-01-12T22:35:59.952Z,76.20
2023-01-12T22:38:26.436Z,76.40
2023-01-12T22:40:52.930Z,76.20
2023-01-12T22:43:19.415Z,76.30
2023-01-12T22:45:45.933Z,77.20
2023-01-12T22:48:12.437Z,76.30
2023-01-12T22:50:38.966Z,76.30
2023-01-12T22:53:05.404Z,76.40
2023-01-12T22:55:31.904Z,76.40
2023-01-12T22:57:58.368Z,76.60
2023-01-12T23:00:24.970Z,76.50
2023-01-12T23:02:51.723Z,76.70
2023-01-12T23:05:18.374Z,76.40
2023-01-12T23:07:45.022Z,76.10
2023-01-12T23:10:11.644Z,76.30
2023-01-12T23:12:38.290Z,76.50
2023-01-12T23:15:04.898Z,76.70
2023-01-12T23:17:31.502Z,77.50
2023-01-12T23:19:58.105Z,76.90
2023-01-12T23:22:24.742Z,76.70
2023-01-12T23:24:51.359Z,76.60
2023-01-12T23:27:17.983Z,76.80
2023-01-12T23:29:44.584Z,76.80
2023-01-12T23:32:11.205Z,76.80
2023-01-12T23:34:37.814Z,76.90
2023-01-12T23:37:04.435Z,76.90
2023-01-12T23:39:31.037Z,76.80
2023-01-12T23:41:57.643Z,77.00
2023-01-12T23:44:24.255Z,77.00
2023-01-12T23:46:50.876Z,77.20
2023-01-12T23:49:17.495Z,77.10
2023-01-12T23:51:44.118Z,77.00
2023-01-12T23:54:10.728Z,76.80
2023-01-12T23:56:37.337Z,77.00
2023-01-12T23:59:03.978Z,76.70
